Time;durP1;ratioP1;P1;durP2;ratioP2;P2;SDS_P1;SDS_P2;PMS_P1;PMS_P2;Temp;Humidity;BMP_temperature;BMP_pressure;BME280_temperature;BME280_humidity;BME280_pressure;Samples;Min_cycle;Max_cycle;Signal;HPM_P1;HPM_P2
2022/10/21 00:01:47;;;;;;;3.03;0.85;;;;;;;;;;6257465;22;20441;-44
2022/10/21 00:04:13;;;;;;;1.85;0.50;;;;;;;;;;6277108;22;20283;-45
2022/10/21 00:06:40;;;;;;;2.38;0.88;;;;;;;;;;6287823;22;20015;-42
2022/10/21 00:09:06;;;;;;;3.63;0.80;;;;;;;;;;6279363;22;20080;-44
2022/10/21 00:11:33;;;;;;;5.75;2.20;;;;;;;;;;6285779;22;20231;-42
2022/10/21 00:14:01;;;;;;;3.15;1.17;;;;;;;;;;6283134;22;20015;-44
2022/10/21 00:16:27;;;;;;;2.00;0.65;;;;;;;;;;6280620;22;20104;-43
2022/10/21 00:18:54;;;;;;;8.35;1.20;;;;;;;;;;6256490;22;20073;-44
2022/10/21 00:21:21;;;;;;;2.63;0.40;;;;;;;;;;6281830;22;20429;-47
2022/10/21 00:23:49;;;;;;;1.85;0.47;;;;;;;;;;6278745;22;20016;-43
2022/10/21 00:26:16;;;;;;;1.92;0.60;;;;;;;;;;6283851;22;20136;-43
2022/10/21 00:28:43;;;;;;;1.95;0.63;;;;;;;;;;6281941;22;20015;-44
2022/10/21 00:31:13;;;;;;;3.35;0.95;;;;;;;;;;6287900;22;20579;-44
2022/10/21 00:33:40;;;;;;;2.00;0.50;;;;;;;;;;6285046;22;20103;-43
2022/10/21 00:36:07;;;;;;;2.70;0.68;;;;;;;;;;6281505;22;20043;-45
2022/10/21 00:38:34;;;;;;;1.98;0.65;;;;;;;;;;6282117;22;20019;-43
2022/10/21 00:41:01;;;;;;;1.52;0.35;;;;;;;;;;6279277;22;20026;-46
2022/10/21 00:43:28;;;;;;;2.20;0.60;;;;;;;;;;6289003;22;20017;-43
2022/10/21 00:45:57;;;;;;;1.73;0.53;;;;;;;;;;6281236;22;20354;-47
2022/10/21 00:48:30;;;;;;;2.00;0.50;;;;;;;;;;6284504;22;20030;-43
2022/10/21 00:50:58;;;;;;;2.33;0.77;;;;;;;;;;6286436;22;20503;-43
2022/10/21 00:53:25;;;;;;;1.75;0.55;;;;;;;;;;6282708;22;20015;-43
2022/10/21 00:55:53;;;;;;;4.68;1.13;;;;;;;;;;6285179;22;20011;-42
2022/10/21 00:58:21;;;;;;;1.90;0.40;;;;;;;;;;6251721;22;20226;-43
2022/10/21 01:00:47;;;;;;;1.58;0.30;;;;;;;;;;6289065;22;20026;-42
2022/10/21 01:03:14;;;;;;;1.48;0.32;;;;;;;;;;6281535;22;20447;-45
2022/10/21 01:05:43;;;;;;;2.05;0.63;;;;;;;;;;6257703;22;20401;-43
2022/10/21 01:08:10;;;;;;;1.90;0.50;;;;;;;;;;6279761;22;20042;-43
2022/10/21 01:10:37;;;;;;;1.37;0.30;;;;;;;;;;6271063;22;20396;-42
2022/10/21 01:13:15;;;;;;;1.20;0.30;;;;;;;;;;6285915;22;20064;-42
2022/10/21 01:15:44;;;;;;;1.77;0.30;;;;;;;;;;6256555;22;20560;-42
2022/10/21 01:18:14;;;;;;;1.83;0.63;;;;;;;;;;6277493;22;20480;-42
2022/10/21 01:21:01;;;;;;;2.10;0.52;;;;;;;;;;6290718;22;20438;-43
2022/10/21 01:23:34;;;;;;;1.00;0.20;;;;;;;;;;6280734;22;20024;-43
2022/10/21 01:26:13;;;;;;;2.08;0.52;;;;;;;;;;6285398;22;20015;-43
2022/10/21 01:28:48;;;;;;;1.63;0.30;;;;;;;;;;6285346;22;20015;-42
2022/10/21 01:31:19;;;;;;;1.73;0.45;;;;;;;;;;6286566;22;20019;-43
2022/10/21 01:33:49;;;;;;;1.95;0.45;;;;;;;;;;6284014;22;20019;-45
2022/10/21 01:36:25;;;;;;;1.50;0.30;;;;;;;;;;6280519;22;20011;-42
2022/10/21 01:38:58;;;;;;;1.80;0.50;;;;;;;;;;6282443;22;20019;-43
2022/10/21 01:41:28;;;;;;;1.55;0.38;;;;;;;;;;6287856;22;20043;-43
2022/10/21 01:43:57;;;;;;;1.75;0.30;;;;;;;;;;6281395;22;20322;-43
2022/10/21 01:46:27;;;;;;;1.77;0.40;;;;;;;;;;6255368;22;20019;-43
2022/10/21 01:48:56;;;;;;;1.53;0.40;;;;;;;;;;6260191;22;20102;-44
2022/10/21 01:51:24;;;;;;;1.80;0.40;;;;;;;;;;6283160;22;20077;-43
2022/10/21 01:53:53;;;;;;;2.17;0.68;;;;;;;;;;6285546;22;20019;-42
2022/10/21 01:56:20;;;;;;;2.08;0.57;;;;;;;;;;6279346;22;20019;-44
2022/10/21 01:58:48;;;;;;;2.88;0.93;;;;;;;;;;6283296;22;20023;-44
2022/10/21 02:01:15;;;;;;;3.53;0.67;;;;;;;;;;6286687;22;20023;-42
2022/10/21 02:03:44;;;;;;;1.90;0.60;;;;;;;;;;6284970;22;20064;-44
2022/10/21 02:06:12;;;;;;;1.85;0.50;;;;;;;;;;6290448;22;20347;-48
2022/10/21 02:08:39;;;;;;;2.28;0.50;;;;;;;;;;6280228;22;20019;-47
2022/10/21 02:11:07;;;;;;;2.85;0.60;;;;;;;;;;6285708;22;20015;-43
2022/10/21 02:13:36;;;;;;;2.20;0.60;;;;;;;;;;6259897;22;20110;-43
2022/10/21 02:16:05;;;;;;;2.13;0.50;;;;;;;;;;6284451;22;20012;-43
2022/10/21 02:18:31;;;;;;;1.35;0.30;;;;;;;;;;6283148;22;20015;-46
2022/10/21 02:21:01;;;;;;;1.02;0.20;;;;;;;;;;6289264;22;20016;-43
2022/10/21 02:23:30;;;;;;;1.63;0.45;;;;;;;;;;6280325;22;20081;-43
2022/10/21 02:25:57;;;;;;;1.97;0.40;;;;;;;;;;6276836;22;20015;-43
2022/10/21 02:28:24;;;;;;;1.40;0.28;;;;;;;;;;6288040;22;20015;-45
2022/10/21 02:30:55;;;;;;;1.60;0.35;;;;;;;;;;6284434;22;20019;-42
2022/10/21 02:33:26;;;;;;;1.50;0.45;;;;;;;;;;6284730;22;20015;-45
2022/10/21 02:35:55;;;;;;;1.70;0.43;;;;;;;;;;6252378;22;20507;-44
2022/10/21 02:38:26;;;;;;;3.37;1.03;;;;;;;;;;6281727;22;20007;-46
2022/10/21 02:40:55;;;;;;;2.90;1.08;;;;;;;;;;6278130;22;20015;-43
2022/10/21 02:43:22;;;;;;;2.75;0.90;;;;;;;;;;6285828;22;20472;-44
2022/10/21 02:45:49;;;;;;;2.20;0.52;;;;;;;;;;6286515;22;20015;-45
2022/10/21 02:48:15;;;;;;;2.05;0.60;;;;;;;;;;6284566;22;20065;-44
2022/10/21 02:50:42;;;;;;;2.57;0.50;;;;;;;;;;6283037;22;20020;-43
2022/10/21 02:53:10;;;;;;;3.25;1.33;;;;;;;;;;6258581;22;20053;-44
2022/10/21 02:55:37;;;;;;;2.42;0.95;;;;;;;;;;6252795;22;20026;-44
2022/10/21 02:58:04;;;;;;;2.70;0.55;;;;;;;;;;6284691;22;20011;-42
2022/10/21 03:00:31;;;;;;;2.80;0.90;;;;;;;;;;6281068;22;20019;-44
2022/10/21 03:02:57;;;;;;;3.20;0.90;;;;;;;;;;6285520;22;20072;-43
2022/10/21 03:05:24;;;;;;;3.38;1.05;;;;;;;;;;6286070;22;20061;-44
2022/10/21 03:07:50;;;;;;;3.30;1.00;;;;;;;;;;6253867;22;20016;-42
2022/10/21 03:10:17;;;;;;;2.80;1.10;;;;;;;;;;6272137;22;20015;-45
2022/10/21 03:12:44;;;;;;;2.40;0.68;;;;;;;;;;6285174;22;20088;-45
2022/10/21 03:15:11;;;;;;;2.67;1.10;;;;;;;;;;6285085;22;20015;-44
2022/10/21 03:17:37;;;;;;;2.85;1.13;;;;;;;;;;6283387;22;20015;-43
2022/10/21 03:20:04;;;;;;;9.00;1.10;;;;;;;;;;6285370;22;20015;-47
2022/10/21 03:22:31;;;;;;;4.05;1.38;;;;;;;;;;6285307;22;20018;-42
2022/10/21 03:24:58;;;;;;;3.42;1.40;;;;;;;;;;6257791;22;20450;-43
2022/10/21 03:27:24;;;;;;;2.43;0.77;;;;;;;;;;6284867;22;20069;-44
2022/10/21 03:29:52;;;;;;;2.38;0.80;;;;;;;;;;6284723;22;20019;-43
2022/10/21 03:32:18;;;;;;;2.47;0.68;;;;;;;;;;6256131;22;20057;-42
2022/10/21 03:34:45;;;;;;;3.50;1.20;;;;;;;;;;6247525;22;20064;-43
2022/10/21 03:37:11;;;;;;;2.83;1.38;;;;;;;;;;6279131;22;20011;-44
2022/10/21 03:39:38;;;;;;;2.97;0.73;;;;;;;;;;6288891;22;20015;-44
2022/10/21 03:42:04;;;;;;;3.13;1.00;;;;;;;;;;6284166;22;20022;-42
2022/10/21 03:44:31;;;;;;;3.28;1.23;;;;;;;;;;6284470;22;20076;-44
2022/10/21 03:46:58;;;;;;;3.97;1.33;;;;;;;;;;6282501;22;20486;-43
2022/10/21 03:49:25;;;;;;;2.97;0.93;;;;;;;;;;6284864;22;20011;-44
2022/10/21 03:51:51;;;;;;;2.67;0.77;;;;;;;;;;6279954;22;20011;-44
2022/10/21 03:54:18;;;;;;;3.25;1.00;;;;;;;;;;6256810;22;20068;-43
2022/10/21 03:56:45;;;;;;;3.38;1.38;;;;;;;;;;6280896;22;20171;-44
2022/10/21 03:59:11;;;;;;;4.47;1.67;;;;;;;;;;6278365;22;20019;-43
2022/10/21 04:01:38;;;;;;;3.70;1.40;;;;;;;;;;6277826;22;20069;-42
2022/10/21 04:04:06;;;;;;;3.93;1.97;;;;;;;;;;6284155;22;20014;-43
2022/10/21 04:06:32;;;;;;;3.83;1.70;;;;;;;;;;6282157;22;20450;-43
2022/10/21 04:08:59;;;;;;;3.92;1.58;;;;;;;;;;6284801;22;20267;-43
2022/10/21 04:11:25;;;;;;;4.45;2.20;;;;;;;;;;6285764;22;20022;-43
2022/10/21 04:13:52;;;;;;;5.03;2.35;;;;;;;;;;6283198;22;20018;-44
2022/10/21 04:16:19;;;;;;;3.87;1.67;;;;;;;;;;6283095;22;20073;-42
2022/10/21 04:18:46;;;;;;;3.28;1.33;;;;;;;;;;6286218;22;20026;-42
2022/10/21 04:21:14;;;;;;;4.13;1.33;;;;;;;;;;6281753;22;20057;-44
2022/10/21 04:23:40;;;;;;;3.97;1.88;;;;;;;;;;6283982;22;20506;-42
2022/10/21 04:26:07;;;;;;;3.83;1.65;;;;;;;;;;6280036;22;20080;-42
2022/10/21 04:28:34;;;;;;;4.60;2.33;;;;;;;;;;6284021;22;20061;-43
2022/10/21 04:31:00;;;;;;;4.65;2.58;;;;;;;;;;6278841;22;20023;-44
2022/10/21 04:33:27;;;;;;;5.45;2.65;;;;;;;;;;6284812;22;20065;-45
2022/10/21 04:35:54;;;;;;;5.18;1.92;;;;;;;;;;6284143;22;20018;-43
2022/10/21 04:38:22;;;;;;;4.20;2.33;;;;;;;;;;6285254;22;20015;-45
2022/10/21 04:40:54;;;;;;;4.00;1.97;;;;;;;;;;6282539;22;20015;-44
2022/10/21 04:43:21;;;;;;;3.22;1.15;;;;;;;;;;6284189;22;20023;-42
2022/10/21 04:45:47;;;;;;;6.32;3.00;;;;;;;;;;6286454;22;20011;-43
2022/10/21 04:48:14;;;;;;;5.63;1.92;;;;;;;;;;6276594;22;20418;-44
2022/10/21 04:50:40;;;;;;;4.00;1.92;;;;;;;;;;6282660;22;20027;-45
2022/10/21 04:53:07;;;;;;;4.70;2.50;;;;;;;;;;6281434;22;20073;-45
2022/10/21 04:55:35;;;;;;;4.93;1.90;;;;;;;;;;6288298;22;20038;-45
2022/10/21 04:58:01;;;;;;;5.68;2.80;;;;;;;;;;6281172;22;20024;-44
2022/10/21 05:00:28;;;;;;;11.38;2.28;;;;;;;;;;6290149;22;20069;-42
2022/10/21 05:02:54;;;;;;;6.60;2.97;;;;;;;;;;6282303;22;20019;-43
2022/10/21 05:05:21;;;;;;;6.60;1.97;;;;;;;;;;6286787;22;20042;-44
2022/10/21 05:07:47;;;;;;;4.85;2.15;;;;;;;;;;6285927;22;20094;-44
2022/10/21 05:10:14;;;;;;;4.70;2.33;;;;;;;;;;6259812;22;20015;-45
2022/10/21 05:12:42;;;;;;;7.40;2.03;;;;;;;;;;6282522;22;20462;-42
2022/10/21 05:15:09;;;;;;;6.30;3.03;;;;;;;;;;6284800;22;20019;-42
2022/10/21 05:17:36;;;;;;;4.47;2.13;;;;;;;;;;6280938;22;20022;-43
2022/10/21 05:20:02;;;;;;;4.43;2.00;;;;;;;;;;6290076;22;20339;-42
2022/10/21 05:22:29;;;;;;;5.72;2.90;;;;;;;;;;6284008;22;20042;-44
2022/10/21 05:24:55;;;;;;;7.18;2.60;;;;;;;;;;6286654;22;20454;-46
2022/10/21 05:27:22;;;;;;;4.60;2.05;;;;;;;;;;6284649;22;20030;-46
2022/10/21 05:29:50;;;;;;;5.13;3.00;;;;;;;;;;6287604;22;20030;-45
2022/10/21 05:32:16;;;;;;;4.18;1.95;;;;;;;;;;6281623;22;20023;-43
2022/10/21 05:34:43;;;;;;;4.57;2.13;;;;;;;;;;6287209;22;20019;-42
2022/10/21 05:37:09;;;;;;;5.05;2.25;;;;;;;;;;6280593;22;20019;-44
2022/10/21 05:39:36;;;;;;;3.75;1.48;;;;;;;;;;6287341;22;20416;-47
2022/10/21 05:42:02;;;;;;;4.00;1.50;;;;;;;;;;6280360;22;20085;-44
2022/10/21 05:44:29;;;;;;;4.72;1.83;;;;;;;;;;6290385;22;20019;-42
2022/10/21 05:46:57;;;;;;;6.38;2.35;;;;;;;;;;6273315;22;20421;-45
2022/10/21 05:49:23;;;;;;;5.45;2.58;;;;;;;;;;6287584;22;20011;-42
2022/10/21 05:51:50;;;;;;;6.07;2.55;;;;;;;;;;6281435;22;20011;-45
2022/10/21 05:54:16;;;;;;;3.73;1.63;;;;;;;;;;6286817;22;20015;-45
2022/10/21 05:56:43;;;;;;;3.47;1.20;;;;;;;;;;6284470;22;20097;-43
2022/10/21 05:59:10;;;;;;;4.35;1.40;;;;;;;;;;6286467;22;20026;-43
2022/10/21 06:01:38;;;;;;;4.10;2.05;;;;;;;;;;6254559;22;20801;-44
2022/10/21 06:04:06;;;;;;;4.53;2.38;;;;;;;;;;6286082;22;20175;-44
2022/10/21 06:06:32;;;;;;;5.30;2.37;;;;;;;;;;6277821;22;20026;-43
2022/10/21 06:09:00;;;;;;;3.75;1.67;;;;;;;;;;6289149;22;20026;-45
2022/10/21 06:11:27;;;;;;;3.83;1.98;;;;;;;;;;6285965;22;20058;-43
2022/10/21 06:13:53;;;;;;;3.85;1.63;;;;;;;;;;6283510;22;20511;-43
2022/10/21 06:16:20;;;;;;;4.43;1.65;;;;;;;;;;6289707;22;20015;-42
2022/10/21 06:18:46;;;;;;;4.20;1.53;;;;;;;;;;6283644;22;20015;-44
2022/10/21 06:21:14;;;;;;;2.85;1.05;;;;;;;;;;6285012;22;20041;-44
2022/10/21 06:23:41;;;;;;;4.90;1.92;;;;;;;;;;6282615;22;20049;-44
2022/10/21 06:26:10;;;;;;;2.13;0.70;;;;;;;;;;6286804;22;20019;-43
2022/10/21 06:28:37;;;;;;;2.78;1.13;;;;;;;;;;6282665;22;20433;-45
2022/10/21 06:31:04;;;;;;;3.00;1.00;;;;;;;;;;6285677;22;20015;-43
2022/10/21 06:33:31;;;;;;;9.85;1.45;;;;;;;;;;6280534;22;20534;-43
2022/10/21 06:35:57;;;;;;;4.28;0.98;;;;;;;;;;6258547;22;20388;-45
2022/10/21 06:38:25;;;;;;;3.35;0.95;;;;;;;;;;6282653;22;20433;-45
2022/10/21 06:40:52;;;;;;;4.00;1.80;;;;;;;;;;6286749;22;20019;-42
2022/10/21 06:43:19;;;;;;;4.40;1.73;;;;;;;;;;6280537;22;20023;-47
2022/10/21 06:45:45;;;;;;;2.65;0.82;;;;;;;;;;6260457;22;20466;-43
2022/10/21 06:48:13;;;;;;;3.33;1.35;;;;;;;;;;6277570;22;20023;-43
2022/10/21 06:50:39;;;;;;;4.57;2.10;;;;;;;;;;6286963;22;20019;-45
2022/10/21 06:53:06;;;;;;;3.42;1.15;;;;;;;;;;6282295;22;20015;-44
2022/10/21 06:55:33;;;;;;;3.67;2.00;;;;;;;;;;6287440;22;20089;-45
2022/10/21 06:58:00;;;;;;;5.18;2.15;;;;;;;;;;6254287;22;20019;-45
2022/10/21 07:00:26;;;;;;;4.25;1.38;;;;;;;;;;6286886;22;20382;-44
2022/10/21 07:02:53;;;;;;;4.72;1.75;;;;;;;;;;6280768;22;20076;-46
2022/10/21 07:05:20;;;;;;;5.55;1.98;;;;;;;;;;6285284;22;20016;-45
2022/10/21 07:07:46;;;;;;;3.73;1.77;;;;;;;;;;6280699;22;20051;-42
2022/10/21 07:10:13;;;;;;;3.08;1.17;;;;;;;;;;6257297;22;20405;-47
2022/10/21 07:12:41;;;;;;;3.35;1.17;;;;;;;;;;6276500;22;20015;-44
2022/10/21 07:15:08;;;;;;;2.75;0.95;;;;;;;;;;6285224;22;20019;-44
2022/10/21 07:17:35;;;;;;;3.13;1.10;;;;;;;;;;6272939;22;20027;-46
2022/10/21 07:20:01;;;;;;;2.93;0.77;;;;;;;;;;6286438;22;20020;-45
2022/10/21 07:22:28;;;;;;;4.03;1.50;;;;;;;;;;6279829;22;20019;-45
2022/10/21 07:24:55;;;;;;;2.40;0.68;;;;;;;;;;6280503;22;20072;-42
2022/10/21 07:27:22;;;;;;;3.45;1.48;;;;;;;;;;6284112;22;20349;-42
2022/10/21 07:29:50;;;;;;;2.33;0.75;;;;;;;;;;6277118;22;20064;-44
2022/10/21 07:32:16;;;;;;;2.77;1.23;;;;;;;;;;6283628;22;20034;-45
2022/10/21 07:34:43;;;;;;;4.38;1.20;;;;;;;;;;6279545;22;20457;-44
2022/10/21 07:37:09;;;;;;;2.83;0.77;;;;;;;;;;6277454;22;20021;-43
2022/10/21 07:39:35;;;;;;;2.65;1.10;;;;;;;;;;6278684;22;20015;-45
2022/10/21 07:42:03;;;;;;;3.25;1.48;;;;;;;;;;6278111;22;20441;-45
2022/10/21 07:44:31;;;;;;;6.30;1.57;;;;;;;;;;6251843;22;20041;-43
2022/10/21 07:46:59;;;;;;;2.75;1.40;;;;;;;;;;6277128;22;20019;-47
2022/10/21 07:49:25;;;;;;;2.88;1.08;;;;;;;;;;6260833;22;20018;-45
2022/10/21 07:51:53;;;;;;;2.35;0.70;;;;;;;;;;6260854;22;20108;-44
2022/10/21 07:54:19;;;;;;;1.90;0.50;;;;;;;;;;6266243;22;20015;-44
2022/10/21 07:56:47;;;;;;;1.60;0.40;;;;;;;;;;6270426;22;20015;-43
2022/10/21 07:59:14;;;;;;;6.15;1.52;;;;;;;;;;6264914;22;20365;-45
2022/10/21 08:01:42;;;;;;;2.10;0.68;;;;;;;;;;6244136;22;20027;-45
2022/10/21 08:04:11;;;;;;;2.50;0.90;;;;;;;;;;6268302;22;20026;-43
2022/10/21 08:06:38;;;;;;;1.77;0.55;;;;;;;;;;6265599;22;20057;-45
2022/10/21 08:09:05;;;;;;;2.60;0.60;;;;;;;;;;6267287;22;20019;-46
2022/10/21 08:11:33;;;;;;;4.20;1.70;;;;;;;;;;6269789;22;20515;-45
2022/10/21 08:14:00;;;;;;;1.98;0.60;;;;;;;;;;6261956;22;20411;-45
2022/10/21 08:16:27;;;;;;;4.35;2.08;;;;;;;;;;6267693;22;20019;-45
2022/10/21 08:18:54;;;;;;;2.25;0.68;;;;;;;;;;6266084;22;20026;-44
2022/10/21 08:21:22;;;;;;;1.87;0.70;;;;;;;;;;6266947;22;20015;-42
2022/10/21 08:23:48;;;;;;;2.42;0.80;;;;;;;;;;6237929;22;20323;-43
2022/10/21 08:26:15;;;;;;;5.45;1.95;;;;;;;;;;6272056;22;20015;-42
2022/10/21 08:28:42;;;;;;;2.00;0.55;;;;;;;;;;6263189;22;20026;-43
2022/10/21 08:31:10;;;;;;;1.70;0.38;;;;;;;;;;6267681;22;20019;-43
2022/10/21 08:33:37;;;;;;;1.27;0.20;;;;;;;;;;6265833;22;20015;-43
2022/10/21 08:36:07;;;;;;;3.05;0.75;;;;;;;;;;6270217;22;20107;-43
2022/10/21 08:38:35;;;;;;;1.50;0.40;;;;;;;;;;6263186;22;20047;-44
2022/10/21 08:41:02;;;;;;;1.98;0.70;;;;;;;;;;6259255;22;20015;-43
2022/10/21 08:43:31;;;;;;;14.20;1.55;;;;;;;;;;6258775;22;20458;-42
2022/10/21 08:46:01;;;;;;;2.00;0.53;;;;;;;;;;6268930;22;20019;-44
2022/10/21 08:48:30;;;;;;;4.28;1.60;;;;;;;;;;6263992;22;20383;-45
2022/10/21 08:50:57;;;;;;;2.50;0.75;;;;;;;;;;6259472;22;20033;-43
2022/10/21 08:53:27;;;;;;;3.15;0.60;;;;;;;;;;6261541;22;20015;-42
2022/10/21 08:55:58;;;;;;;3.33;0.82;;;;;;;;;;6239021;22;20038;-45
2022/10/21 08:58:24;;;;;;;2.77;0.50;;;;;;;;;;6260810;22;20096;-42
2022/10/21 09:00:54;;;;;;;2.47;0.68;;;;;;;;;;6256765;22;20023;-43
2022/10/21 09:03:23;;;;;;;1.48;0.28;;;;;;;;;;6262835;22;20022;-43
2022/10/21 09:05:58;;;;;;;2.70;0.50;;;;;;;;;;6264558;22;20639;-44
2022/10/21 09:08:30;;;;;;;2.17;0.77;;;;;;;;;;6264781;22;20011;-43
2022/10/21 09:11:04;;;;;;;4.73;0.80;;;;;;;;;;6253721;22;20389;-44
2022/10/21 09:13:49;;;;;;;2.22;0.90;;;;;;;;;;6265075;22;20019;-45
2022/10/21 09:16:19;;;;;;;2.30;0.95;;;;;;;;;;6261175;22;20011;-45
2022/10/21 09:18:49;;;;;;;3.63;0.75;;;;;;;;;;6264628;22;20016;-42
2022/10/21 09:21:19;;;;;;;1.92;0.60;;;;;;;;;;6265959;22;20019;-42
2022/10/21 09:23:53;;;;;;;2.27;0.77;;;;;;;;;;6263153;22;20082;-44
2022/10/21 09:26:32;;;;;;;2.47;0.82;;;;;;;;;;6264861;22;20011;-44
2022/10/21 09:29:00;;;;;;;1.80;0.40;;;;;;;;;;6252179;22;20094;-42
2022/10/21 09:31:28;;;;;;;3.30;0.88;;;;;;;;;;6243108;22;20015;-43
2022/10/21 09:33:58;;;;;;;7.63;1.48;;;;;;;;;;6259574;22;20449;-43
2022/10/21 09:36:26;;;;;;;2.00;0.40;;;;;;;;;;6268355;22;20440;-44
2022/10/21 09:38:55;;;;;;;3.13;0.82;;;;;;;;;;6261617;22;20011;-44
2022/10/21 09:41:23;;;;;;;2.97;0.80;;;;;;;;;;6272196;22;20500;-43
2022/10/21 09:43:52;;;;;;;4.60;0.68;;;;;;;;;;6270833;22;20021;-43
2022/10/21 09:46:19;;;;;;;1.58;0.45;;;;;;;;;;6269796;22;20322;-43
2022/10/21 09:48:47;;;;;;;5.47;0.77;;;;;;;;;;6264082;22;20023;-43
2022/10/21 09:51:14;;;;;;;3.13;0.57;;;;;;;;;;6257099;22;20465;-43
2022/10/21 09:53:45;;;;;;;4.10;0.82;;;;;;;;;;6266533;22;20019;-42
2022/10/21 09:56:15;;;;;;;1.65;0.45;;;;;;;;;;6268366;22;20019;-43
2022/10/21 09:58:45;;;;;;;1.83;0.60;;;;;;;;;;6267374;22;20118;-44
2022/10/21 10:01:17;;;;;;;4.90;1.53;;;;;;;;;;6263628;22;20011;-42
2022/10/21 10:03:45;;;;;;;1.25;0.20;;;;;;;;;;6271666;22;20019;-43
2022/10/21 10:06:12;;;;;;;1.40;0.30;;;;;;;;;;6266617;22;20034;-44
2022/10/21 10:08:40;;;;;;;2.00;0.60;;;;;;;;;;6279126;22;20019;-43
2022/10/21 10:11:14;;;;;;;2.08;0.68;;;;;;;;;;6284265;22;20015;-44
2022/10/21 10:13:42;;;;;;;3.97;1.07;;;;;;;;;;6287470;22;20539;-43
2022/10/21 10:16:13;;;;;;;1.85;0.50;;;;;;;;;;6252300;22;20089;-43
2022/10/21 10:18:41;;;;;;;2.13;0.52;;;;;;;;;;6286898;22;20438;-43
2022/10/21 10:21:10;;;;;;;4.25;1.90;;;;;;;;;;6285126;22;20354;-42
2022/10/21 10:23:43;;;;;;;3.75;1.38;;;;;;;;;;6287612;22;20390;-43
2022/10/21 10:26:09;;;;;;;6.00;0.80;;;;;;;;;;6283849;22;20015;-42
2022/10/21 10:28:37;;;;;;;2.15;0.77;;;;;;;;;;6286575;22;20734;-47
2022/10/21 10:31:03;;;;;;;3.92;1.17;;;;;;;;;;6281283;22;20011;-44
2022/10/21 10:33:31;;;;;;;6.10;1.40;;;;;;;;;;6286263;22;20304;-47
2022/10/21 10:36:00;;;;;;;2.58;0.68;;;;;;;;;;6254172;22;20027;-43
2022/10/21 10:38:29;;;;;;;10.90;0.90;;;;;;;;;;6285613;22;20185;-43
2022/10/21 10:41:03;;;;;;;3.33;0.82;;;;;;;;;;6282906;22;20458;-44
2022/10/21 10:43:30;;;;;;;2.00;0.65;;;;;;;;;;6258382;22;20458;-44
2022/10/21 10:45:59;;;;;;;2.25;0.55;;;;;;;;;;6259791;22;20016;-44
2022/10/21 10:48:27;;;;;;;2.28;0.57;;;;;;;;;;6251841;22;20351;-42
2022/10/21 10:50:56;;;;;;;2.40;0.73;;;;;;;;;;6287694;22;20011;-45
2022/10/21 10:53:31;;;;;;;1.70;0.50;;;;;;;;;;6282470;22;20102;-42
2022/10/21 10:56:06;;;;;;;2.58;0.60;;;;;;;;;;6287890;22;20023;-44
2022/10/21 10:58:34;;;;;;;2.45;0.80;;;;;;;;;;6275688;22;20018;-43
2022/10/21 11:01:03;;;;;;;2.85;0.68;;;;;;;;;;6285201;22;20012;-43
2022/10/21 11:03:35;;;;;;;5.93;1.77;;;;;;;;;;6284073;22;20015;-44
2022/10/21 11:06:12;;;;;;;3.97;1.67;;;;;;;;;;6284551;22;20018;-45
2022/10/21 11:08:41;;;;;;;2.35;1.25;;;;;;;;;;6289498;22;20015;-43
2022/10/21 11:11:12;;;;;;;4.93;1.23;;;;;;;;;;6281834;22;20430;-44
2022/10/21 11:13:39;;;;;;;2.10;0.60;;;;;;;;;;6286987;22;20464;-43
2022/10/21 11:16:11;;;;;;;3.70;0.90;;;;;;;;;;6280041;22;20034;-43
2022/10/21 11:18:40;;;;;;;2.53;0.43;;;;;;;;;;6257904;22;20354;-43
2022/10/21 11:21:14;;;;;;;3.35;1.67;;;;;;;;;;6285016;22;20094;-47
2022/10/21 11:23:58;;;;;;;2.28;0.70;;;;;;;;;;6284816;22;20019;-42
2022/10/21 11:26:29;;;;;;;2.83;1.27;;;;;;;;;;6266563;22;20027;-42
2022/10/21 11:28:59;;;;;;;1.27;0.20;;;;;;;;;;6281740;22;20076;-44
2022/10/21 11:31:30;;;;;;;1.90;0.70;;;;;;;;;;6285189;22;20015;-42
2022/10/21 11:34:01;;;;;;;2.08;0.65;;;;;;;;;;6280147;22;20015;-44
2022/10/21 11:36:34;;;;;;;5.13;0.80;;;;;;;;;;6255716;22;20015;-45
2022/10/21 11:39:18;;;;;;;1.85;0.50;;;;;;;;;;6285335;22;20031;-42
2022/10/21 11:41:48;;;;;;;2.00;0.50;;;;;;;;;;6280587;22;20389;-42
2022/10/21 11:44:16;;;;;;;1.80;0.40;;;;;;;;;;6285381;22;20015;-43
2022/10/21 11:46:48;;;;;;;1.85;0.50;;;;;;;;;;6274497;22;20396;-43
2022/10/21 11:49:23;;;;;;;1.90;0.50;;;;;;;;;;6285393;22;20051;-43
2022/10/21 11:51:54;;;;;;;3.35;0.90;;;;;;;;;;6281417;22;20011;-43
2022/10/21 11:54:38;;;;;;;1.80;0.60;;;;;;;;;;6284460;22;20022;-45
2022/10/21 11:57:08;;;;;;;1.65;0.40;;;;;;;;;;6284816;22;20457;-44
2022/10/21 11:59:44;;;;;;;1.92;0.50;;;;;;;;;;6281517;22;20446;-42
2022/10/21 12:02:15;;;;;;;1.80;0.50;;;;;;;;;;6258719;22;20242;-44
2022/10/21 12:04:47;;;;;;;1.55;0.40;;;;;;;;;;6282070;22;20015;-44
2022/10/21 12:07:21;;;;;;;2.00;0.50;;;;;;;;;;6282432;22;20041;-44
2022/10/21 12:09:51;;;;;;;2.13;0.50;;;;;;;;;;6281100;22;20019;-44
2022/10/21 12:12:21;;;;;;;2.20;0.65;;;;;;;;;;6255420;22;20027;-43
2022/10/21 12:14:49;;;;;;;2.50;0.90;;;;;;;;;;6279664;22;20446;-46
2022/10/21 12:17:18;;;;;;;1.70;0.40;;;;;;;;;;6280069;22;20015;-44
2022/10/21 12:19:46;;;;;;;2.60;1.47;;;;;;;;;;6280371;22;20465;-44
2022/10/21 12:22:13;;;;;;;1.60;0.40;;;;;;;;;;6282497;22;20022;-43
2022/10/21 12:24:43;;;;;;;3.22;0.77;;;;;;;;;;6277479;22;20019;-43
2022/10/21 12:27:16;;;;;;;3.05;0.80;;;;;;;;;;6277095;22;20084;-42
2022/10/21 12:29:50;;;;;;;1.90;0.50;;;;;;;;;;6274049;22;20015;-43
2022/10/21 12:32:22;;;;;;;2.50;0.63;;;;;;;;;;6280129;22;20022;-45
2022/10/21 12:34:48;;;;;;;2.90;0.80;;;;;;;;;;6282603;22;20039;-44
2022/10/21 12:37:34;;;;;;;4.68;0.63;;;;;;;;;;6278510;22;20019;-47
2022/10/21 12:40:09;;;;;;;1.58;0.40;;;;;;;;;;6281525;22;20015;-45
2022/10/21 12:42:35;;;;;;;2.03;0.60;;;;;;;;;;6274895;22;20470;-45
2022/10/21 12:45:05;;;;;;;1.90;0.50;;;;;;;;;;6277364;22;20076;-43
2022/10/21 12:47:33;;;;;;;1.70;0.45;;;;;;;;;;6280429;22;20023;-44
2022/10/21 12:50:04;;;;;;;1.40;0.30;;;;;;;;;;6276250;22;20073;-42
2022/10/21 12:52:37;;;;;;;2.00;0.60;;;;;;;;;;6282795;22;20253;-44
2022/10/21 12:55:06;;;;;;;1.70;0.57;;;;;;;;;;6271249;22;20026;-45
2022/10/21 12:57:34;;;;;;;1.90;0.50;;;;;;;;;;6281768;22;20030;-43
2022/10/21 13:00:15;;;;;;;4.97;0.75;;;;;;;;;;6277854;22;20016;-44
2022/10/21 13:02:57;;;;;;;2.10;0.70;;;;;;;;;;6276998;22;20392;-44
2022/10/21 13:05:38;;;;;;;3.95;0.98;;;;;;;;;;6278942;22;20023;-43
2022/10/21 13:08:15;;;;;;;2.08;0.63;;;;;;;;;;6273909;22;20089;-45
2022/10/21 13:10:59;;;;;;;3.17;1.03;;;;;;;;;;6280546;22;20023;-44
2022/10/21 13:13:35;;;;;;;3.45;0.77;;;;;;;;;;6252095;22;20069;-44
2022/10/21 13:16:23;;;;;;;2.15;0.52;;;;;;;;;;6276045;22;20102;-44
2022/10/21 13:18:56;;;;;;;2.08;0.55;;;;;;;;;;6283197;22;20011;-43
2022/10/21 13:21:24;;;;;;;1.70;0.40;;;;;;;;;;6284497;22;20015;-44
2022/10/21 13:23:51;;;;;;;1.97;0.57;;;;;;;;;;6284954;22;20015;-44
2022/10/21 13:26:23;;;;;;;5.95;0.68;;;;;;;;;;6279400;22;20094;-43
2022/10/21 13:28:56;;;;;;;2.58;0.88;;;;;;;;;;6288607;22;20084;-45
2022/10/21 13:31:23;;;;;;;3.63;1.08;;;;;;;;;;6287658;22;20328;-46
2022/10/21 13:33:52;;;;;;;7.88;1.33;;;;;;;;;;6280603;22;20011;-45
2022/10/21 13:36:31;;;;;;;3.40;0.90;;;;;;;;;;6285967;22;20034;-43
2022/10/21 13:38:59;;;;;;;5.88;0.95;;;;;;;;;;6282029;22;20305;-45
2022/10/21 13:41:26;;;;;;;2.40;0.50;;;;;;;;;;6285973;22;20418;-43
2022/10/21 13:43:54;;;;;;;3.08;1.00;;;;;;;;;;6283489;22;20564;-45
2022/10/21 13:46:25;;;;;;;2.58;1.05;;;;;;;;;;6289732;22;20026;-44
2022/10/21 13:48:52;;;;;;;3.67;1.17;;;;;;;;;;6280460;22;20054;-43
2022/10/21 13:51:20;;;;;;;7.35;1.95;;;;;;;;;;6282413;22;20019;-44
2022/10/21 13:53:48;;;;;;;2.22;0.80;;;;;;;;;;6281473;22;20031;-43
2022/10/21 13:56:19;;;;;;;3.40;0.88;;;;;;;;;;6283539;22;20025;-43
2022/10/21 13:58:46;;;;;;;2.70;0.93;;;;;;;;;;6290086;22;20069;-45
2022/10/21 14:01:13;;;;;;;2.50;0.87;;;;;;;;;;6280979;22;20015;-43
2022/10/21 14:03:41;;;;;;;1.90;0.70;;;;;;;;;;6287374;22;20022;-43
2022/10/21 14:06:08;;;;;;;3.80;1.38;;;;;;;;;;6285003;22;20011;-45
2022/10/21 14:08:38;;;;;;;6.55;1.48;;;;;;;;;;6282231;22;20560;-43
2022/10/21 14:11:10;;;;;;;3.30;1.25;;;;;;;;;;6280198;22;20346;-44
2022/10/21 14:13:36;;;;;;;3.57;0.70;;;;;;;;;;6284258;22;20406;-46
2022/10/21 14:16:03;;;;;;;3.03;0.77;;;;;;;;;;6283230;22;20462;-42
2022/10/21 14:18:32;;;;;;;5.03;1.20;;;;;;;;;;6283618;22;20022;-47
2022/10/21 14:20:59;;;;;;;2.33;0.77;;;;;;;;;;6285056;22;20523;-45
2022/10/21 14:23:26;;;;;;;2.72;0.70;;;;;;;;;;6284365;22;20011;-45
2022/10/21 14:25:54;;;;;;;2.23;0.60;;;;;;;;;;6286108;22;20416;-45
2022/10/21 14:28:22;;;;;;;2.70;0.70;;;;;;;;;;6284827;22;20222;-43
2022/10/21 14:30:49;;;;;;;1.80;0.40;;;;;;;;;;6255039;22;20381;-44
2022/10/21 14:33:19;;;;;;;2.10;0.65;;;;;;;;;;6284346;22;20011;-42
2022/10/21 14:36:03;;;;;;;1.90;0.57;;;;;;;;;;6283051;22;20076;-42
2022/10/21 14:38:36;;;;;;;1.70;0.40;;;;;;;;;;6244204;22;20456;-42
2022/10/21 14:41:06;;;;;;;1.73;0.45;;;;;;;;;;6284122;22;20018;-43
2022/10/21 14:43:35;;;;;;;2.17;0.60;;;;;;;;;;6285975;22;20022;-43
2022/10/21 14:46:04;;;;;;;1.80;0.40;;;;;;;;;;6274671;22;20011;-43
2022/10/21 14:48:32;;;;;;;1.65;0.40;;;;;;;;;;6276550;22;20248;-43
2022/10/21 14:51:00;;;;;;;1.53;0.40;;;;;;;;;;6276342;22;20023;-43
2022/10/21 14:53:27;;;;;;;1.67;0.43;;;;;;;;;;6276352;22;20019;-42